Time;durP1;ratioP1;P1;durP2;ratioP2;P2;SDS_P1;SDS_P2;PMS_P1;PMS_P2;Temp;Humidity;BMP_temperature;BMP_pressure;BME280_temperature;BME280_humidity;BME280_pressure;Samples;Min_cycle;Max_cycle;Signal;HPM_P1;HPM_P2
2022/09/01 00:00:21;;;;;;;14.25;12.57;;;;;;;;;;4939429;29;20047;-81
2022/09/01 00:03:09;;;;;;;17.70;12.45;;;;;;;;;;4939142;29;20059;-80
2022/09/01 00:05:55;;;;;;;12.93;11.48;;;;;;;;;;4938830;29;20047;-81
2022/09/01 00:08:41;;;;;;;19.13;12.73;;;;;;;;;;4938957;29;20048;-81
2022/09/01 00:11:28;;;;;;;14.02;11.95;;;;;;;;;;4938790;29;20047;-80
2022/09/01 00:14:13;;;;;;;17.50;12.38;;;;;;;;;;4938810;29;20052;-81
2022/09/01 00:17:02;;;;;;;14.90;12.10;;;;;;;;;;4939399;29;20036;-80
2022/09/01 00:19:48;;;;;;;16.15;12.73;;;;;;;;;;4938736;29;20055;-80
2022/09/01 00:22:34;;;;;;;15.48;12.60;;;;;;;;;;4938358;29;20047;-80
2022/09/01 00:25:20;;;;;;;14.65;12.73;;;;;;;;;;4938364;29;20395;-81
2022/09/01 00:28:06;;;;;;;15.80;12.57;;;;;;;;;;4924214;29;20503;-80
2022/09/01 00:30:52;;;;;;;14.93;13.00;;;;;;;;;;4938531;29;20482;-80
2022/09/01 00:33:37;;;;;;;16.95;13.35;;;;;;;;;;4944835;29;20043;-80
2022/09/01 00:36:23;;;;;;;14.80;12.38;;;;;;;;;;4937177;29;20048;-79
2022/09/01 00:39:08;;;;;;;20.55;12.15;;;;;;;;;;4944185;29;20482;-80
2022/09/01 00:41:54;;;;;;;15.40;12.05;;;;;;;;;;4938488;29;20052;-79
2022/09/01 00:44:39;;;;;;;14.73;12.10;;;;;;;;;;4944083;29;20047;-80
2022/09/01 00:47:24;;;;;;;15.05;11.55;;;;;;;;;;4938045;29;20044;-80
2022/09/01 00:50:13;;;;;;;15.55;12.13;;;;;;;;;;4938264;29;20052;-80
2022/09/01 00:52:59;;;;;;;14.95;12.02;;;;;;;;;;4943940;29;20055;-81
2022/09/01 00:55:44;;;;;;;14.88;12.38;;;;;;;;;;4943750;29;20401;-81
2022/09/01 00:58:31;;;;;;;14.93;12.13;;;;;;;;;;4938481;29;20051;-81
2022/09/01 01:01:17;;;;;;;17.58;11.90;;;;;;;;;;4937963;29;20047;-81
2022/09/01 01:04:04;;;;;;;18.48;13.52;;;;;;;;;;4938144;29;20044;-81
2022/09/01 01:07:00;;;;;;;15.68;12.02;;;;;;;;;;4937893;29;20048;-80
2022/09/01 01:09:46;;;;;;;16.63;12.30;;;;;;;;;;4929631;29;20043;-81
2022/09/01 01:12:32;;;;;;;15.68;13.00;;;;;;;;;;4938104;29;20048;-80
2022/09/01 01:15:18;;;;;;;15.70;12.63;;;;;;;;;;4938095;29;20047;-81
2022/09/01 01:18:03;;;;;;;13.77;11.20;;;;;;;;;;4938040;29;20485;-81
2022/09/01 01:24:31;;;;;;;14.80;13.18;;;;;;;;;;4943356;29;20044;-80
2022/09/01 01:27:18;;;;;;;18.15;12.55;;;;;;;;;;4930142;29;20047;-81
2022/09/01 01:30:08;;;;;;;17.67;14.45;;;;;;;;;;4943831;29;20044;-79
2022/09/01 01:32:57;;;;;;;16.30;14.02;;;;;;;;;;4930639;29;20056;-79
2022/09/01 01:35:43;;;;;;;18.90;14.95;;;;;;;;;;4938848;29;20048;-79
2022/09/01 01:38:30;;;;;;;21.98;14.43;;;;;;;;;;4937415;29;20056;-80
2022/09/01 01:41:20;;;;;;;16.23;13.82;;;;;;;;;;4943723;29;20048;-80
2022/09/01 01:44:07;;;;;;;17.77;13.55;;;;;;;;;;4929952;29;20044;-80
2022/09/01 01:46:54;;;;;;;24.55;15.15;;;;;;;;;;4943235;29;20039;-79
2022/09/01 01:49:42;;;;;;;19.42;14.73;;;;;;;;;;4928941;29;20039;-80
2022/09/01 01:52:28;;;;;;;18.85;15.55;;;;;;;;;;4943006;29;20482;-81
2022/09/01 01:55:18;;;;;;;18.85;16.00;;;;;;;;;;4937114;29;20048;-80
2022/09/01 01:58:04;;;;;;;21.20;15.60;;;;;;;;;;4942443;29;20486;-80
2022/09/01 02:00:52;;;;;;;21.88;16.52;;;;;;;;;;4942361;29;20055;-80
2022/09/01 02:03:38;;;;;;;21.48;15.68;;;;;;;;;;4937010;29;20402;-80
2022/09/01 02:06:25;;;;;;;18.05;14.77;;;;;;;;;;4937173;29;20059;-80
2022/09/01 02:09:17;;;;;;;18.83;16.35;;;;;;;;;;4942075;29;20040;-80
2022/09/01 02:12:02;;;;;;;20.20;15.55;;;;;;;;;;4936740;29;20051;-81
2022/09/01 02:14:53;;;;;;;21.25;16.48;;;;;;;;;;4942478;29;20048;-81
2022/09/01 02:17:38;;;;;;;20.10;15.52;;;;;;;;;;4942124;29;20047;-81
2022/09/01 02:20:28;;;;;;;18.35;14.55;;;;;;;;;;4942285;29;20043;-81
2022/09/01 02:23:18;;;;;;;18.77;14.57;;;;;;;;;;4928811;29;20051;-80
2022/09/01 02:26:05;;;;;;;19.20;13.98;;;;;;;;;;4936600;29;20060;-81
2022/09/01 02:28:50;;;;;;;17.63;13.90;;;;;;;;;;4943113;29;20051;-81
2022/09/01 02:31:39;;;;;;;19.13;14.15;;;;;;;;;;4941897;29;20044;-81
2022/09/01 02:34:27;;;;;;;17.17;13.90;;;;;;;;;;4936528;29;20048;-82
2022/09/01 02:37:13;;;;;;;19.42;13.18;;;;;;;;;;4938350;29;20409;-82
2022/09/01 02:39:58;;;;;;;17.52;12.27;;;;;;;;;;4942072;29;20044;-81
2022/09/01 02:42:47;;;;;;;18.13;13.55;;;;;;;;;;4943016;29;20047;-81
2022/09/01 02:45:34;;;;;;;14.57;12.20;;;;;;;;;;4941730;29;20039;-82
2022/09/01 02:48:31;;;;;;;16.73;12.07;;;;;;;;;;4928644;29;20039;-81
2022/09/01 02:51:21;;;;;;;14.73;11.55;;;;;;;;;;4941702;29;20048;-81
2022/09/01 02:54:06;;;;;;;19.10;13.18;;;;;;;;;;4928242;29;20060;-81
2022/09/01 02:56:53;;;;;;;19.35;13.50;;;;;;;;;;4941567;29;20035;-80
2022/09/01 02:59:41;;;;;;;15.00;12.35;;;;;;;;;;4929661;29;20059;-81
2022/09/01 03:02:27;;;;;;;16.45;13.80;;;;;;;;;;4945834;29;20052;-80
2022/09/01 03:05:15;;;;;;;21.42;14.85;;;;;;;;;;4946806;29;20047;-81
2022/09/01 03:08:02;;;;;;;17.20;15.30;;;;;;;;;;4940191;29;20052;-81
2022/09/01 03:10:48;;;;;;;19.52;15.00;;;;;;;;;;4945514;29;20394;-81
2022/09/01 03:13:33;;;;;;;21.95;15.15;;;;;;;;;;4940021;29;20048;-82
2022/09/01 03:16:20;;;;;;;22.10;14.45;;;;;;;;;;4944947;29;20040;-79
2022/09/01 03:19:08;;;;;;;21.98;16.75;;;;;;;;;;4932084;29;20044;-80
2022/09/01 03:21:54;;;;;;;20.38;14.70;;;;;;;;;;4945252;29;20048;-79
2022/09/01 03:24:41;;;;;;;23.38;15.35;;;;;;;;;;4945013;29;20055;-81
2022/09/01 03:27:26;;;;;;;21.10;16.52;;;;;;;;;;4944731;29;20044;-81
2022/09/01 03:30:13;;;;;;;23.33;16.27;;;;;;;;;;4938132;29;20043;-80
2022/09/01 03:32:59;;;;;;;23.20;16.30;;;;;;;;;;4944926;29;20047;-81
2022/09/01 03:35:45;;;;;;;21.92;16.48;;;;;;;;;;4939483;29;20048;-81
2022/09/01 03:38:32;;;;;;;20.45;16.27;;;;;;;;;;4939354;29;20044;-81
2022/09/01 03:41:23;;;;;;;22.13;15.77;;;;;;;;;;4944726;29;20043;-82
2022/09/01 03:44:10;;;;;;;19.90;15.48;;;;;;;;;;4944645;29;20048;-82
2022/09/01 03:47:00;;;;;;;20.60;15.00;;;;;;;;;;4944902;29;20048;-82
2022/09/01 03:49:48;;;;;;;18.92;15.90;;;;;;;;;;4944424;29;20043;-81
2022/09/01 03:52:33;;;;;;;18.50;15.60;;;;;;;;;;4944780;29;20055;-82
2022/09/01 03:55:23;;;;;;;20.98;16.00;;;;;;;;;;4944380;29;20402;-81
2022/09/01 03:58:13;;;;;;;22.90;17.60;;;;;;;;;;4944378;29;20047;-82
2022/09/01 04:01:01;;;;;;;24.85;17.08;;;;;;;;;;4944782;29;20402;-82
2022/09/01 04:03:47;;;;;;;18.52;16.45;;;;;;;;;;4939003;29;20495;-81
2022/09/01 04:06:36;;;;;;;21.48;16.58;;;;;;;;;;4944147;29;20048;-82
2022/09/01 04:09:21;;;;;;;22.35;16.85;;;;;;;;;;4938805;29;20043;-81
2022/09/01 04:12:07;;;;;;;23.55;15.98;;;;;;;;;;4944335;29;20051;-81
2022/09/01 04:14:55;;;;;;;19.95;14.98;;;;;;;;;;4944308;29;20060;-82
2022/09/01 04:20:49;;;;;;;19.52;14.45;;;;;;;;;;4944268;29;20051;-82
2022/09/01 04:23:35;;;;;;;20.02;15.32;;;;;;;;;;4938558;29;20044;-82
2022/09/01 04:26:30;;;;;;;20.80;15.60;;;;;;;;;;4930025;29;20470;-82
2022/09/01 04:29:26;;;;;;;24.25;15.88;;;;;;;;;;4917500;29;20062;-82
2022/09/01 04:32:11;;;;;;;18.75;14.73;;;;;;;;;;4938434;29;20048;-82
2022/09/01 04:35:00;;;;;;;17.67;14.23;;;;;;;;;;4944062;29;20490;-82
2022/09/01 04:37:47;;;;;;;18.30;14.98;;;;;;;;;;4938915;29;20048;-82
2022/09/01 04:40:32;;;;;;;18.65;15.20;;;;;;;;;;4944001;29;20040;-81
2022/09/01 04:43:23;;;;;;;21.40;15.85;;;;;;;;;;4943372;29;20055;-81
2022/09/01 04:46:09;;;;;;;21.00;15.45;;;;;;;;;;4930108;29;20048;-82
2022/09/01 04:48:56;;;;;;;26.77;15.65;;;;;;;;;;4943638;29;20055;-82
2022/09/01 04:51:43;;;;;;;21.23;15.85;;;;;;;;;;4929844;29;20056;-81
2022/09/01 04:54:31;;;;;;;17.75;14.95;;;;;;;;;;4943560;29;20039;-82
2022/09/01 04:57:17;;;;;;;21.73;14.25;;;;;;;;;;4943468;29;20433;-82
2022/09/01 05:00:03;;;;;;;21.75;15.07;;;;;;;;;;4943771;29;20051;-81
2022/09/01 05:02:54;;;;;;;18.80;14.55;;;;;;;;;;4930998;29;20043;-82
2022/09/01 05:05:44;;;;;;;18.67;15.18;;;;;;;;;;4942958;29;20059;-81
2022/09/01 05:08:30;;;;;;;21.98;14.30;;;;;;;;;;4943205;29;20040;-81
2022/09/01 05:11:18;;;;;;;21.30;13.30;;;;;;;;;;4929962;29;20052;-83
2022/09/01 05:14:06;;;;;;;17.77;12.88;;;;;;;;;;4942913;29;20055;-81
2022/09/01 05:16:57;;;;;;;20.15;13.63;;;;;;;;;;4943066;29;20043;-80
2022/09/01 05:19:49;;;;;;;21.77;15.02;;;;;;;;;;4929690;29;20039;-82
2022/09/01 05:22:37;;;;;;;26.77;16.85;;;;;;;;;;4941451;29;20052;-82
2022/09/01 05:25:26;;;;;;;18.83;15.63;;;;;;;;;;4929526;29;20051;-82
2022/09/01 05:28:12;;;;;;;20.38;14.98;;;;;;;;;;4942947;29;20052;-82
2022/09/01 05:31:01;;;;;;;16.88;12.70;;;;;;;;;;4941245;29;20044;-82
2022/09/01 05:33:49;;;;;;;20.08;13.38;;;;;;;;;;4942951;29;20048;-81
2022/09/01 05:36:40;;;;;;;18.52;12.98;;;;;;;;;;4941074;29;20052;-81
2022/09/01 05:39:27;;;;;;;15.77;12.32;;;;;;;;;;4943444;29;20475;-82
2022/09/01 05:42:12;;;;;;;23.13;11.90;;;;;;;;;;4937203;29;20056;-82
2022/09/01 05:44:59;;;;;;;19.60;11.85;;;;;;;;;;4942757;29;20051;-82
2022/09/01 05:47:45;;;;;;;20.17;13.70;;;;;;;;;;4942522;29;20048;-82
2022/09/01 05:50:30;;;;;;;16.35;13.38;;;;;;;;;;4942395;29;20048;-82
2022/09/01 05:53:16;;;;;;;18.15;13.80;;;;;;;;;;4942951;29;20040;-83
2022/09/01 05:56:08;;;;;;;18.60;14.38;;;;;;;;;;4942542;29;20048;-83
2022/09/01 05:58:58;;;;;;;16.77;13.93;;;;;;;;;;4929067;29;20051;-82
2022/09/01 06:01:46;;;;;;;17.08;12.50;;;;;;;;;;4942425;29;20498;-82
2022/09/01 06:04:32;;;;;;;16.00;11.93;;;;;;;;;;4929165;29;20055;-82
2022/09/01 06:07:27;;;;;;;15.45;12.45;;;;;;;;;;4942687;29;20044;-81
2022/09/01 06:10:14;;;;;;;16.35;12.43;;;;;;;;;;4942305;29;20051;-81
2022/09/01 06:13:01;;;;;;;17.23;11.70;;;;;;;;;;4942214;29;20043;-81
2022/09/01 06:15:52;;;;;;;15.23;11.52;;;;;;;;;;4942284;29;20039;-81
2022/09/01 06:18:39;;;;;;;17.75;11.73;;;;;;;;;;4942103;29;20043;-82
2022/09/01 06:21:27;;;;;;;14.80;11.80;;;;;;;;;;4942241;29;20048;-83
2022/09/01 06:24:13;;;;;;;15.15;11.77;;;;;;;;;;4945037;29;20043;-82
2022/09/01 06:26:59;;;;;;;15.20;12.00;;;;;;;;;;4942198;29;20059;-83
2022/09/01 06:29:50;;;;;;;14.07;11.70;;;;;;;;;;4941831;29;20498;-82
2022/09/01 06:32:37;;;;;;;15.88;12.57;;;;;;;;;;4928835;29;20043;-81
2022/09/01 06:35:28;;;;;;;17.55;13.68;;;;;;;;;;4941170;29;20390;-81
2022/09/01 06:38:16;;;;;;;17.70;14.70;;;;;;;;;;4923195;29;20059;-82
2022/09/01 06:41:09;;;;;;;22.17;15.93;;;;;;;;;;4941881;29;20040;-82
2022/09/01 06:43:54;;;;;;;23.75;16.70;;;;;;;;;;4941815;29;20055;-82
2022/09/01 06:46:40;;;;;;;24.80;16.50;;;;;;;;;;4942078;29;20043;-83
2022/09/01 06:49:31;;;;;;;22.25;15.70;;;;;;;;;;4942052;29;20036;-83
2022/09/01 06:52:19;;;;;;;22.92;15.88;;;;;;;;;;4941752;29;20052;-82
2022/09/01 06:55:06;;;;;;;22.30;14.70;;;;;;;;;;4941782;29;20043;-82
2022/09/01 06:57:53;;;;;;;19.40;14.30;;;;;;;;;;4941695;29;20052;-81
2022/09/01 07:00:41;;;;;;;17.10;13.23;;;;;;;;;;4941733;29;20047;-81
2022/09/01 07:03:29;;;;;;;20.13;13.32;;;;;;;;;;4941753;29;20044;-81
2022/09/01 07:06:36;;;;;;;15.35;12.35;;;;;;;;;;4941570;29;20063;-81
2022/09/01 07:09:35;;;;;;;14.85;12.50;;;;;;;;;;4936276;29;20044;-79
2022/09/01 07:12:35;;;;;;;21.73;12.55;;;;;;;;;;4941067;29;20078;-79
2022/09/01 07:15:24;;;;;;;18.15;12.57;;;;;;;;;;4941524;29;20052;-77
2022/09/01 07:18:11;;;;;;;16.33;12.82;;;;;;;;;;4935993;29;20402;-78
2022/09/01 07:20:57;;;;;;;13.27;11.70;;;;;;;;;;4941652;29;20043;-77
2022/09/01 07:23:42;;;;;;;13.88;12.27;;;;;;;;;;4941716;29;20048;-77
2022/09/01 07:26:28;;;;;;;18.45;11.88;;;;;;;;;;4941330;29;20048;-77
2022/09/01 07:29:16;;;;;;;14.82;12.45;;;;;;;;;;4941245;29;20040;-77
2022/09/01 07:32:02;;;;;;;16.60;11.85;;;;;;;;;;4941369;29;20052;-78
2022/09/01 07:34:48;;;;;;;14.10;11.13;;;;;;;;;;4927902;29;20490;-76
2022/09/01 07:37:36;;;;;;;17.92;11.73;;;;;;;;;;4937663;29;20080;-77
2022/09/01 07:40:27;;;;;;;12.75;11.25;;;;;;;;;;4927853;29;20063;-79
2022/09/01 07:43:26;;;;;;;19.38;11.50;;;;;;;;;;4935799;29;20051;-77
2022/09/01 07:46:37;;;;;;;14.27;11.95;;;;;;;;;;4947251;28;20433;-77
2022/09/01 07:49:23;;;;;;;17.52;11.30;;;;;;;;;;4944614;29;20040;-77
2022/09/01 07:52:11;;;;;;;14.45;11.88;;;;;;;;;;4945637;29;20489;-77
2022/09/01 07:54:57;;;;;;;15.98;10.82;;;;;;;;;;4944621;29;20048;-78
2022/09/01 07:57:45;;;;;;;14.50;11.50;;;;;;;;;;4939270;29;20039;-75
2022/09/01 08:00:33;;;;;;;15.27;11.40;;;;;;;;;;4944575;29;20055;-75
2022/09/01 08:03:24;;;;;;;12.00;10.57;;;;;;;;;;4944411;29;20044;-75
2022/09/01 08:06:12;;;;;;;15.85;11.88;;;;;;;;;;4944395;29;20044;-77
2022/09/01 08:08:59;;;;;;;13.80;9.85;;;;;;;;;;4944312;29;20047;-77
2022/09/01 08:11:46;;;;;;;13.77;11.18;;;;;;;;;;4930878;29;20048;-76
2022/09/01 08:14:31;;;;;;;16.13;11.73;;;;;;;;;;4944171;29;20051;-76
2022/09/01 08:17:18;;;;;;;13.73;10.93;;;;;;;;;;4938833;29;20398;-77
2022/09/01 08:20:07;;;;;;;13.07;10.90;;;;;;;;;;4930769;29;20051;-77
2022/09/01 08:23:17;;;;;;;15.60;11.10;;;;;;;;;;4938696;29;20055;-78
2022/09/01 08:26:06;;;;;;;16.90;11.50;;;;;;;;;;4944303;29;20414;-79
2022/09/01 08:28:53;;;;;;;13.35;10.98;;;;;;;;;;4943983;29;20081;-77
2022/09/01 08:31:42;;;;;;;16.08;11.75;;;;;;;;;;4943519;29;20052;-78
2022/09/01 08:34:31;;;;;;;12.82;10.25;;;;;;;;;;4943852;29;20051;-78
2022/09/01 08:37:16;;;;;;;13.30;10.50;;;;;;;;;;4940862;29;20040;-78
2022/09/01 08:40:04;;;;;;;15.23;11.02;;;;;;;;;;4943878;29;20055;-77
2022/09/01 08:43:05;;;;;;;15.70;11.95;;;;;;;;;;4943652;29;20043;-78
2022/09/01 08:45:54;;;;;;;14.32;11.27;;;;;;;;;;4943800;29;20055;-77
2022/09/01 08:48:45;;;;;;;14.10;10.60;;;;;;;;;;4943405;29;20039;-77
2022/09/01 08:51:51;;;;;;;14.27;11.27;;;;;;;;;;4943183;29;20048;-78
2022/09/01 08:54:54;;;;;;;16.95;11.35;;;;;;;;;;4943397;29;20043;-77
2022/09/01 08:57:44;;;;;;;14.77;11.60;;;;;;;;;;4929001;29;20055;-80
2022/09/01 09:00:51;;;;;;;16.17;11.38;;;;;;;;;;4937787;29;20040;-78
2022/09/01 09:03:57;;;;;;;13.18;10.65;;;;;;;;;;4944267;29;20036;-78
2022/09/01 09:07:01;;;;;;;18.83;12.02;;;;;;;;;;4938176;29;20051;-77
2022/09/01 09:10:01;;;;;;;15.25;11.60;;;;;;;;;;4937050;29;20051;-77
2022/09/01 09:13:25;;;;;;;17.63;10.32;;;;;;;;;;4937381;29;20052;-78
2022/09/01 09:16:22;;;;;;;15.50;10.45;;;;;;;;;;4922697;29;20043;-77
2022/09/01 09:19:17;;;;;;;10.90;9.50;;;;;;;;;;4937058;29;20048;-77
2022/09/01 09:22:13;;;;;;;12.55;10.63;;;;;;;;;;4937575;29;20393;-77
2022/09/01 09:25:09;;;;;;;12.10;10.43;;;;;;;;;;4936774;29;20040;-75
2022/09/01 09:27:55;;;;;;;11.30;9.55;;;;;;;;;;4937513;29;20465;-76
2022/09/01 09:30:40;;;;;;;13.63;9.40;;;;;;;;;;4943242;29;20051;-75
2022/09/01 09:33:37;;;;;;;11.95;10.15;;;;;;;;;;4936781;29;20052;-78
2022/09/01 09:36:29;;;;;;;12.52;10.00;;;;;;;;;;4936548;29;20047;-77
2022/09/01 09:39:17;;;;;;;11.68;9.90;;;;;;;;;;4936445;29;20048;-78
2022/09/01 09:42:09;;;;;;;12.32;9.98;;;;;;;;;;4936503;29;20047;-77
2022/09/01 09:44:55;;;;;;;16.20;9.93;;;;;;;;;;4936534;29;20051;-78
2022/09/01 09:47:43;;;;;;;11.60;10.00;;;;;;;;;;4937168;29;20056;-78
2022/09/01 09:50:33;;;;;;;14.27;9.27;;;;;;;;;;4936348;29;20047;-78
2022/09/01 09:53:32;;;;;;;9.57;8.57;;;;;;;;;;4943234;29;20051;-78
2022/09/01 09:56:24;;;;;;;11.27;9.23;;;;;;;;;;4943377;29;20047;-79
2022/09/01 09:59:25;;;;;;;11.23;8.57;;;;;;;;;;4936802;29;20048;-78
2022/09/01 10:02:26;;;;;;;11.20;9.05;;;;;;;;;;4929127;29;20059;-79
2022/09/01 10:05:23;;;;;;;18.52;13.73;;;;;;;;;;4936506;29;20482;-78
2022/09/01 10:08:36;;;;;;;12.38;9.27;;;;;;;;;;4936713;29;20055;-77
2022/09/01 10:11:26;;;;;;;12.68;9.18;;;;;;;;;;4942962;29;20047;-76
2022/09/01 10:14:26;;;;;;;24.60;20.10;;;;;;;;;;4936626;29;20039;-76
2022/09/01 10:17:14;;;;;;;13.25;10.13;;;;;;;;;;4942999;29;20047;-76
2022/09/01 10:20:06;;;;;;;14.13;8.73;;;;;;;;;;4942938;29;20394;-75
2022/09/01 10:22:52;;;;;;;11.60;9.30;;;;;;;;;;4936596;29;20494;-77
2022/09/01 10:25:39;;;;;;;11.02;9.23;;;;;;;;;;4936481;29;20051;-77
2022/09/01 10:28:28;;;;;;;10.13;9.10;;;;;;;;;;4936462;29;20490;-76
2022/09/01 10:31:14;;;;;;;13.07;9.27;;;;;;;;;;4935940;29;20047;-78
2022/09/01 10:34:03;;;;;;;10.82;8.90;;;;;;;;;;4936262;29;20051;-77
2022/09/01 10:36:49;;;;;;;12.40;8.63;;;;;;;;;;4941218;29;20043;-77
2022/09/01 10:40:33;;;;;;;12.45;8.65;;;;;;;;;;4936367;29;20052;-76
2022/09/01 10:43:28;;;;;;;10.13;7.47;;;;;;;;;;4859850;29;20049;-77
2022/09/01 10:46:36;;;;;;;9.65;6.88;;;;;;;;;;4859578;29;20061;-76
2022/09/01 10:49:44;;;;;;;12.80;7.47;;;;;;;;;;4859245;29;20061;-77
2022/09/01 10:52:41;;;;;;;7.68;6.63;;;;;;;;;;4846782;29;20069;-77
2022/09/01 10:55:41;;;;;;;12.13;9.52;;;;;;;;;;4930198;29;20390;-76
2022/09/01 10:58:52;;;;;;;11.15;9.85;;;;;;;;;;4936185;29;20048;-78
2022/09/01 11:01:44;;;;;;;12.00;10.80;;;;;;;;;;4935852;29;20052;-76
2022/09/01 11:04:29;;;;;;;13.43;9.52;;;;;;;;;;4936124;29;20047;-76
2022/09/01 11:07:18;;;;;;;12.07;10.30;;;;;;;;;;4936356;29;20047;-77
2022/09/01 11:10:18;;;;;;;12.68;11.38;;;;;;;;;;4935929;29;20040;-76
2022/09/01 11:13:26;;;;;;;14.27;12.13;;;;;;;;;;4935677;29;20052;-78
2022/09/01 11:16:30;;;;;;;18.60;12.10;;;;;;;;;;4935675;29;20069;-78
2022/09/01 11:19:31;;;;;;;15.27;12.73;;;;;;;;;;4936301;29;20047;-76
2022/09/01 11:22:21;;;;;;;13.27;11.73;;;;;;;;;;4939470;29;20047;-77
2022/09/01 11:25:46;;;;;;;15.52;12.20;;;;;;;;;;4939464;29;20035;-78
2022/09/01 11:28:38;;;;;;;17.67;12.93;;;;;;;;;;4923232;29;20055;-78
2022/09/01 11:31:30;;;;;;;13.48;12.05;;;;;;;;;;4945536;29;20047;-78
2022/09/01 11:34:20;;;;;;;14.60;12.35;;;;;;;;;;4945644;29;20036;-78
2022/09/01 11:37:13;;;;;;;16.30;12.73;;;;;;;;;;4938306;29;20047;-79
2022/09/01 11:40:02;;;;;;;17.33;12.82;;;;;;;;;;4944968;29;20051;-78
2022/09/01 11:42:52;;;;;;;14.30;12.80;;;;;;;;;;4939394;29;20489;-77
2022/09/01 11:45:49;;;;;;;15.73;13.07;;;;;;;;;;4939082;29;20044;-77
2022/09/01 11:48:35;;;;;;;15.18;12.05;;;;;;;;;;4944487;29;20490;-78
2022/09/01 11:51:20;;;;;;;16.25;12.30;;;;;;;;;;4938512;29;20052;-77
2022/09/01 11:54:05;;;;;;;14.93;13.35;;;;;;;;;;4939137;29;20051;-77
2022/09/01 11:56:50;;;;;;;15.23;13.55;;;;;;;;;;4939206;29;20048;-78
2022/09/01 11:59:37;;;;;;;16.52;13.52;;;;;;;;;;4945271;29;20047;-80
2022/09/01 12:02:26;;;;;;;15.82;13.13;;;;;;;;;;4938824;29;20390;-78
2022/09/01 12:05:30;;;;;;;18.38;13.57;;;;;;;;;;4945473;29;20048;-79
2022/09/01 12:08:18;;;;;;;15.25;13.18;;;;;;;;;;4939064;29;20056;-78
2022/09/01 12:11:31;;;;;;;15.80;13.15;;;;;;;;;;4937250;29;20055;-78
2022/09/01 12:14:21;;;;;;;19.15;14.27;;;;;;;;;;4943204;29;20072;-78
2022/09/01 12:17:07;;;;;;;20.98;13.60;;;;;;;;;;4938700;29;20048;-78
2022/09/01 12:19:53;;;;;;;21.80;14.65;;;;;;;;;;4943863;29;20047;-78
2022/09/01 12:22:41;;;;;;;18.92;13.68;;;;;;;;;;4945033;29;20052;-78
2022/09/01 12:25:33;;;;;;;22.67;13.55;;;;;;;;;;4938713;29;20485;-78
2022/09/01 12:28:19;;;;;;;19.45;14.77;;;;;;;;;;4938645;29;20044;-78
2022/09/01 12:31:11;;;;;;;17.52;14.20;;;;;;;;;;4944652;29;20040;-78
2022/09/01 12:33:56;;;;;;;15.32;13.25;;;;;;;;;;4944663;29;20039;-77
2022/09/01 12:36:41;;;;;;;19.17;14.32;;;;;;;;;;4938330;29;20052;-78
2022/09/01 12:39:36;;;;;;;20.48;15.45;;;;;;;;;;4938654;29;20055;-78
2022/09/01 12:42:33;;;;;;;21.42;14.57;;;;;;;;;;4938388;29;20405;-77
2022/09/01 12:45:44;;;;;;;19.92;14.52;;;;;;;;;;4938391;29;20043;-77
2022/09/01 12:48:34;;;;;;;19.33;14.20;;;;;;;;;;4938283;29;20040;-78
2022/09/01 12:51:23;;;;;;;24.83;14.75;;;;;;;;;;4938002;29;20485;-78
2022/09/01 12:54:10;;;;;;;18.17;13.80;;;;;;;;;;4937968;29;20047;-77
2022/09/01 12:56:56;;;;;;;16.90;12.45;;;;;;;;;;4938608;29;20051;-77
2022/09/01 12:59:42;;;;;;;18.08;12.60;;;;;;;;;;4944453;29;20043;-79
2022/09/01 13:02:37;;;;;;;16.58;9.98;;;;;;;;;;4937880;29;20048;-78
2022/09/01 13:05:32;;;;;;;13.68;9.57;;;;;;;;;;4938326;29;20051;-77
2022/09/01 13:08:27;;;;;;;14.98;9.70;;;;;;;;;;4937638;29;20401;-75
2022/09/01 13:11:17;;;;;;;18.17;9.70;;;;;;;;;;4937517;29;20043;-76
2022/09/01 13:14:03;;;;;;;14.75;9.52;;;;;;;;;;4938107;29;20060;-77
2022/09/01 13:16:49;;;;;;;17.42;9.88;;;;;;;;;;4937842;29;20048;-76
2022/09/01 13:19:34;;;;;;;11.52;9.23;;;;;;;;;;4943753;29;20493;-77
2022/09/01 13:22:20;;;;;;;12.57;9.38;;;;;;;;;;4943823;29;20398;-77
2022/09/01 13:25:06;;;;;;;14.07;9.98;;;;;;;;;;4943915;29;20040;-76
2022/09/01 13:27:51;;;;;;;17.02;10.38;;;;;;;;;;4937820;29;20470;-76
2022/09/01 13:30:37;;;;;;;13.50;8.73;;;;;;;;;;4937029;29;20421;-75
2022/09/01 13:33:22;;;;;;;11.90;8.18;;;;;;;;;;4937368;29;20051;-76
2022/09/01 13:36:07;;;;;;;15.85;9.98;;;;;;;;;;4937473;29;20482;-77
2022/09/01 13:38:53;;;;;;;13.80;8.90;;;;;;;;;;4937338;29;20047;-75
2022/09/01 13:41:38;;;;;;;19.33;10.32;;;;;;;;;;4936698;29;20043;-77
2022/09/01 13:44:23;;;;;;;14.02;9.10;;;;;;;;;;4942935;29;20489;-78
2022/09/01 13:47:09;;;;;;;13.55;8.93;;;;;;;;;;4937031;29;20047;-78
2022/09/01 13:49:54;;;;;;;12.65;8.63;;;;;;;;;;4937155;29;20060;-77
2022/09/01 13:52:42;;;;;;;15.38;8.90;;;;;;;;;;4943163;29;20047;-79
2022/09/01 13:55:31;;;;;;;18.05;9.70;;;;;;;;;;4936677;29;20047;-79
2022/09/01 13:58:16;;;;;;;13.15;10.30;;;;;;;;;;4943214;29;20044;-80
2022/09/01 14:01:03;;;;;;;16.83;10.85;;;;;;;;;;4936794;29;20044;-78
2022/09/01 14:03:49;;;;;;;16.52;10.80;;;;;;;;;;4936718;29;20048;-78
2022/09/01 14:06:39;;;;;;;13.05;9.90;;;;;;;;;;4936463;29;20486;-78
2022/09/01 14:09:25;;;;;;;14.43;10.23;;;;;;;;;;4936332;29;20052;-79
2022/09/01 14:12:10;;;;;;;20.35;11.25;;;;;;;;;;4935907;29;20051;-78
2022/09/01 14:14:56;;;;;;;18.10;10.70;;;;;;;;;;4942846;29;20051;-78
2022/09/01 14:17:42;;;;;;;17.30;10.95;;;;;;;;;;4936572;29;20040;-78
2022/09/01 14:20:35;;;;;;;16.88;11.35;;;;;;;;;;4936183;29;20055;-78
2022/09/01 14:23:20;;;;;;;15.93;10.63;;;;;;;;;;4936294;29;20047;-78
2022/09/01 14:26:11;;;;;;;17.00;10.40;;;;;;;;;;4936582;29;20056;-80
2022/09/01 14:28:57;;;;;;;13.82;10.35;;;;;;;;;;4936317;29;20040;-79
2022/09/01 14:31:43;;;;;;;15.35;10.38;;;;;;;;;;4936224;29;20048;-79
2022/09/01 14:34:29;;;;;;;18.75;9.90;;;;;;;;;;4935248;29;20057;-80
2022/09/01 14:37:15;;;;;;;18.08;10.23;;;;;;;;;;4928781;29;20494;-80
2022/09/01 14:40:00;;;;;;;13.35;10.25;;;;;;;;;;4917373;29;20043;-79
2022/09/01 14:42:50;;;;;;;18.17;9.38;;;;;;;;;;4917257;29;20052;-79
2022/09/01 14:45:36;;;;;;;11.55;9.07;;;;;;;;;;4916915;29;20052;-79
2022/09/01 14:48:22;;;;;;;14.68;9.43;;;;;;;;;;4917476;29;20048;-79
2022/09/01 14:51:08;;;;;;;16.75;8.77;;;;;;;;;;4916932;29;20040;-80
2022/09/01 14:53:54;;;;;;;11.85;9.05;;;;;;;;;;4917174;29;20402;-80
2022/09/01 14:56:40;;;;;;;11.32;8.98;;;;;;;;;;4921029;29;20044;-79
2022/09/01 14:59:25;;;;;;;13.75;9.75;;;;;;;;;;4934038;29;20048;-80
2022/09/01 15:02:11;;;;;;;15.00;9.48;;;;;;;;;;4922151;29;20398;-79
2022/09/01 15:04:56;;;;;;;14.75;9.63;;;;;;;;;;4921790;29;20390;-79
2022/09/01 15:07:42;;;;;;;15.40;9.65;;;;;;;;;;4921653;29;20052;-79
2022/09/01 15:10:29;;;;;;;17.60;10.13;;;;;;;;;;4922051;29;20052;-79
2022/09/01 15:13:14;;;;;;;14.90;10.60;;;;;;;;;;4921667;29;20048;-77
2022/09/01 15:16:00;;;;;;;19.05;11.65;;;;;;;;;;4923151;29;20491;-78
2022/09/01 15:18:46;;;;;;;17.42;11.60;;;;;;;;;;4922267;29;20044;-78
2022/09/01 15:21:32;;;;;;;21.90;12.80;;;;;;;;;;4920913;29;20490;-77
2022/09/01 15:24:18;;;;;;;19.40;12.55;;;;;;;;;;4926346;29;20044;-77
2022/09/01 15:27:05;;;;;;;19.02;12.57;;;;;;;;;;4919260;29;20055;-77
2022/09/01 15:29:50;;;;;;;17.73;13.27;;;;;;;;;;4918816;29;20040;-77
2022/09/01 15:32:36;;;;;;;16.52;13.45;;;;;;;;;;4926705;29;20048;-79
2022/09/01 15:35:22;;;;;;;17.27;13.40;;;;;;;;;;4926499;29;20494;-78
2022/09/01 15:38:07;;;;;;;19.13;12.13;;;;;;;;;;4920229;29;20403;-79
2022/09/01 15:40:54;;;;;;;17.55;12.90;;;;;;;;;;4919453;29;20048;-78
2022/09/01 15:43:39;;;;;;;22.15;13.20;;;;;;;;;;4920193;29;20040;-78
2022/09/01 15:46:32;;;;;;;17.17;12.55;;;;;;;;;;4926786;29;20052;-77
2022/09/01 15:49:17;;;;;;;17.63;12.55;;;;;;;;;;4920339;29;20052;-77
2022/09/01 15:52:03;;;;;;;18.52;13.65;;;;;;;;;;4920064;29;20048;-78
2022/09/01 15:54:49;;;;;;;20.60;13.82;;;;;;;;;;4920283;29;20044;-79
2022/09/01 15:57:34;;;;;;;21.98;15.00;;;;;;;;;;4919991;29;20043;-78
2022/09/01 16:00:22;;;;;;;21.88;15.10;;;;;;;;;;4925528;29;20060;-77
2022/09/01 16:03:08;;;;;;;21.40;14.52;;;;;;;;;;4920127;29;20052;-77
2022/09/01 16:05:54;;;;;;;23.75;16.02;;;;;;;;;;4926062;29;20048;-78
2022/09/01 16:08:40;;;;;;;22.17;11.95;;;;;;;;;;4926710;29;20052;-77
2022/09/01 16:11:25;;;;;;;22.17;16.35;;;;;;;;;;4920239;29;20036;-77
2022/09/01 16:14:10;;;;;;;22.85;16.48;;;;;;;;;;4920657;29;20056;-76
2022/09/01 16:17:03;;;;;;;21.67;16.30;;;;;;;;;;4919661;29;20052;-76
2022/09/01 16:19:55;;;;;;;21.98;14.85;;;;;;;;;;4919955;29;20048;-76
2022/09/01 16:22:53;;;;;;;22.77;14.27;;;;;;;;;;4919651;29;20040;-77
2022/09/01 16:25:40;;;;;;;22.90;16.05;;;;;;;;;;4919520;29;20055;-77
2022/09/01 16:28:34;;;;;;;12.13;8.80;;;;;;;;;;4919734;29;20052;-77
2022/09/01 16:31:25;;;;;;;20.50;12.75;;;;;;;;;;4926052;29;20060;-77
2022/09/01 16:34:16;;;;;;;18.33;11.77;;;;;;;;;;4920106;29;20048;-76